DNO5AV LGIR-LGAV
Flight info
| Callsign | DNO5AV |
|---|---|
| Flight time | 0h 35m |
| Altitude | 24000 |
| Route | EPALO UM749 MIL L617 SOREV |
| Aircraft | A320/M-SDE3FGHIRWY/LB1 |
Departure
| Time | 2026-05-05 17:09 |
|---|---|
| Airport | Heraklion International Nikos Kazantzakis Airport (LGIR) |
Arrival
| Time | 2026-05-05 17:45 |
|---|---|
| Airport | Athens Eleftherios Venizelos International Airport (LGAV) |
| Time | Latitude | Longitude | Altitude | Speed | Heading |
|---|---|---|---|---|---|
| 2026-05-05 16:49 | 35.33803 | 25.17472 | 91 ft | 0 kts | 316° |
| 2026-05-05 17:05 | 35.33819 | 25.17459 | 92 ft | 8 kts | 334° |
| 2026-05-05 17:05 | 35.33894 | 25.17490 | 91 ft | 14 kts | 51° |
| 2026-05-05 17:05 | 35.33904 | 25.17616 | 91 ft | 16 kts | 96° |
| 2026-05-05 17:06 | 35.33899 | 25.17695 | 92 ft | 17 kts | 95° |
| 2026-05-05 17:06 | 35.33896 | 25.17739 | 94 ft | 18 kts | 95° |
| 2026-05-05 17:06 | 35.33884 | 25.17905 | 92 ft | 20 kts | 95° |
| 2026-05-05 17:07 | 35.33879 | 25.17976 | 92 ft | 22 kts | 95° |
| 2026-05-05 17:07 | 35.33874 | 25.18040 | 92 ft | 22 kts | 95° |
| 2026-05-05 17:07 | 35.33861 | 25.18238 | 93 ft | 24 kts | 95° |
| 2026-05-05 17:07 | 35.33845 | 25.18460 | 91 ft | 28 kts | 95° |
| 2026-05-05 17:08 | 35.33829 | 25.18687 | 90 ft | 28 kts | 95° |
| 2026-05-05 17:08 | 35.33818 | 25.18858 | 90 ft | 21 kts | 94° |
| 2026-05-05 17:08 | 35.33861 | 25.19001 | 89 ft | 14 kts | 46° |
| 2026-05-05 17:08 | 35.33911 | 25.18947 | 88 ft | 14 kts | 278° |
| 2026-05-05 17:09 | 35.33939 | 25.18550 | 89 ft | 92 kts | 275° |
| 2026-05-05 17:09 | 35.34015 | 25.17436 | 129 ft | 162 kts | 277° |
| 2026-05-05 17:09 | 35.34107 | 25.15971 | 804 ft | 173 kts | 280° |
| 2026-05-05 17:09 | 35.34609 | 25.14680 | 1801 ft | 173 kts | 320° |
| 2026-05-05 17:10 | 35.35689 | 25.14045 | 2442 ft | 176 kts | 339° |
| 2026-05-05 17:10 | 35.36946 | 25.13634 | 2647 ft | 198 kts | 343° |
| 2026-05-05 17:10 | 35.38361 | 25.13217 | 2791 ft | 221 kts | 344° |
| 2026-05-05 17:10 | 35.39932 | 25.12738 | 3062 ft | 241 kts | 343° |
| 2026-05-05 17:11 | 35.41575 | 25.12207 | 3620 ft | 246 kts | 343° |
| 2026-05-05 17:11 | 35.43228 | 25.11644 | 4270 ft | 247 kts | 343° |
| 2026-05-05 17:11 | 35.44878 | 25.11061 | 4946 ft | 246 kts | 343° |
| 2026-05-05 17:11 | 35.46521 | 25.10466 | 5607 ft | 246 kts | 343° |
| 2026-05-05 17:12 | 35.48150 | 25.09865 | 6242 ft | 245 kts | 343° |
| 2026-05-05 17:12 | 35.49233 | 25.09461 | 6649 ft | 245 kts | 342° |
| 2026-05-05 17:12 | 35.50871 | 25.08845 | 7184 ft | 247 kts | 342° |
| 2026-05-05 17:12 | 35.52521 | 25.08209 | 7693 ft | 250 kts | 342° |
| 2026-05-05 17:13 | 35.54184 | 25.07539 | 8178 ft | 254 kts | 341° |
| 2026-05-05 17:13 | 35.56424 | 25.06619 | 8810 ft | 258 kts | 341° |
| 2026-05-05 17:13 | 35.57580 | 25.06144 | 9134 ft | 260 kts | 341° |
| 2026-05-05 17:13 | 35.59866 | 25.05200 | 9728 ft | 264 kts | 341° |
| 2026-05-05 17:14 | 35.61050 | 25.04711 | 10051 ft | 266 kts | 341° |
| 2026-05-05 17:14 | 35.62825 | 25.03981 | 10334 ft | 274 kts | 341° |
| 2026-05-05 17:14 | 35.64666 | 25.03225 | 10475 ft | 284 kts | 341° |
| 2026-05-05 17:14 | 35.66554 | 25.02452 | 10599 ft | 293 kts | 341° |
| 2026-05-05 17:15 | 35.68514 | 25.01650 | 10741 ft | 299 kts | 341° |
| 2026-05-05 17:15 | 35.70494 | 25.00837 | 10969 ft | 301 kts | 341° |
| 2026-05-05 17:15 | 35.72467 | 24.99946 | 11186 ft | 303 kts | 333° |
| 2026-05-05 17:15 | 35.74135 | 24.98355 | 11516 ft | 301 kts | 316° |
| 2026-05-05 17:16 | 35.75577 | 24.96517 | 11899 ft | 301 kts | 315° |
| 2026-05-05 17:16 | 35.77031 | 24.94628 | 12031 ft | 307 kts | 315° |
| 2026-05-05 17:16 | 35.78507 | 24.92704 | 12210 ft | 311 kts | 315° |
| 2026-05-05 17:16 | 35.79998 | 24.90760 | 12339 ft | 315 kts | 315° |
| 2026-05-05 17:17 | 35.81517 | 24.88784 | 12478 ft | 318 kts | 315° |
| 2026-05-05 17:17 | 35.83038 | 24.86803 | 12691 ft | 318 kts | 315° |
| 2026-05-05 17:17 | 35.84620 | 24.84905 | 12910 ft | 317 kts | 324° |
| 2026-05-05 17:17 | 35.86561 | 24.83679 | 13101 ft | 316 kts | 343° |
| 2026-05-05 17:18 | 35.88687 | 24.82945 | 13282 ft | 317 kts | 345° |
| 2026-05-05 17:18 | 35.90824 | 24.82237 | 13463 ft | 319 kts | 345° |
| 2026-05-05 17:18 | 35.92972 | 24.81534 | 13633 ft | 320 kts | 345° |
| 2026-05-05 17:18 | 35.95136 | 24.80828 | 13806 ft | 322 kts | 346° |
| 2026-05-05 17:19 | 35.97298 | 24.80122 | 13952 ft | 323 kts | 345° |
| 2026-05-05 17:19 | 35.99480 | 24.79404 | 14109 ft | 324 kts | 345° |
| 2026-05-05 17:19 | 36.01627 | 24.78696 | 14618 ft | 310 kts | 345° |
| 2026-05-05 17:19 | 36.03649 | 24.78032 | 15340 ft | 295 kts | 345° |
| 2026-05-05 17:20 | 36.05618 | 24.77385 | 15752 ft | 292 kts | 345° |
| 2026-05-05 17:20 | 36.07580 | 24.76733 | 16081 ft | 292 kts | 345° |
| 2026-05-05 17:20 | 36.09522 | 24.76086 | 16379 ft | 293 kts | 345° |
| 2026-05-05 17:20 | 36.11494 | 24.75431 | 16675 ft | 294 kts | 345° |
| 2026-05-05 17:21 | 36.13476 | 24.74775 | 17007 ft | 297 kts | 345° |
| 2026-05-05 17:21 | 36.15550 | 24.74089 | 17189 ft | 319 kts | 345° |
| 2026-05-05 17:21 | 36.17766 | 24.73356 | 17326 ft | 340 kts | 345° |
| 2026-05-05 17:22 | 36.22489 | 24.71782 | 18286 ft | 358 kts | 345° |
| 2026-05-05 17:22 | 36.24906 | 24.70978 | 18905 ft | 361 kts | 345° |
| 2026-05-05 17:22 | 36.27339 | 24.70167 | 19566 ft | 363 kts | 345° |
| 2026-05-05 17:22 | 36.29784 | 24.69356 | 20248 ft | 365 kts | 344° |
| 2026-05-05 17:23 | 36.32249 | 24.68538 | 20914 ft | 367 kts | 344° |
| 2026-05-05 17:23 | 36.34720 | 24.67716 | 21560 ft | 369 kts | 344° |
| 2026-05-05 17:23 | 36.37211 | 24.66886 | 22175 ft | 372 kts | 344° |
| 2026-05-05 17:23 | 36.39715 | 24.66049 | 22776 ft | 374 kts | 344° |
| 2026-05-05 17:24 | 36.42241 | 24.65204 | 23354 ft | 377 kts | 344° |
| 2026-05-05 17:24 | 36.44782 | 24.64353 | 23861 ft | 380 kts | 343° |
| 2026-05-05 17:24 | 36.47342 | 24.63496 | 24027 ft | 380 kts | 344° |
| 2026-05-05 17:24 | 36.49919 | 24.62634 | 24069 ft | 387 kts | 344° |
| 2026-05-05 17:25 | 36.52538 | 24.61757 | 24070 ft | 390 kts | 344° |
| 2026-05-05 17:25 | 36.54277 | 24.61175 | 24074 ft | 396 kts | 344° |
| 2026-05-05 17:25 | 36.57919 | 24.59950 | 24073 ft | 414 kts | 344° |
| 2026-05-05 17:25 | 36.60731 | 24.59002 | 24073 ft | 425 kts | 344° |
| 2026-05-05 17:26 | 36.63627 | 24.58029 | 24066 ft | 435 kts | 344° |
| 2026-05-05 17:26 | 36.66573 | 24.57040 | 24071 ft | 443 kts | 344° |
| 2026-05-05 17:26 | 36.69577 | 24.56031 | 24071 ft | 450 kts | 344° |
| 2026-05-05 17:26 | 36.72612 | 24.55011 | 24072 ft | 455 kts | 344° |
| 2026-05-05 17:27 | 36.75682 | 24.53977 | 24062 ft | 455 kts | 344° |
| 2026-05-05 17:27 | 36.78741 | 24.52943 | 24067 ft | 455 kts | 344° |
| 2026-05-05 17:27 | 36.81803 | 24.51907 | 24066 ft | 456 kts | 344° |
| 2026-05-05 17:27 | 36.84866 | 24.50872 | 24069 ft | 456 kts | 344° |
| 2026-05-05 17:28 | 36.87904 | 24.49844 | 23547 ft | 449 kts | 344° |
| 2026-05-05 17:28 | 36.90881 | 24.48836 | 22085 ft | 447 kts | 344° |
| 2026-05-05 17:28 | 36.93781 | 24.47853 | 21524 ft | 413 kts | 344° |
| 2026-05-05 17:28 | 36.96464 | 24.46945 | 21227 ft | 390 kts | 344° |
| 2026-05-05 17:29 | 36.98969 | 24.45856 | 21102 ft | 374 kts | 333° |
| 2026-05-05 17:29 | 37.01096 | 24.44079 | 20863 ft | 365 kts | 323° |
| 2026-05-05 17:29 | 37.03080 | 24.42127 | 20423 ft | 360 kts | 322° |
| 2026-05-05 17:29 | 37.05035 | 24.40180 | 19943 ft | 358 kts | 322° |
| 2026-05-05 17:30 | 37.06973 | 24.38242 | 19438 ft | 355 kts | 322° |
| 2026-05-05 17:30 | 37.08892 | 24.36323 | 18947 ft | 353 kts | 323° |
| 2026-05-05 17:30 | 37.10801 | 24.34412 | 18441 ft | 350 kts | 323° |
| 2026-05-05 17:30 | 37.12705 | 24.32510 | 17872 ft | 348 kts | 323° |
| 2026-05-05 17:31 | 37.14590 | 24.30626 | 17296 ft | 346 kts | 323° |
| 2026-05-05 17:31 | 37.16467 | 24.28750 | 16745 ft | 344 kts | 323° |
| 2026-05-05 17:31 | 37.18336 | 24.26879 | 16197 ft | 342 kts | 323° |
| 2026-05-05 17:31 | 37.20197 | 24.25019 | 15660 ft | 340 kts | 323° |
| 2026-05-05 17:32 | 37.22015 | 24.23202 | 15130 ft | 338 kts | 323° |
| 2026-05-05 17:32 | 37.23852 | 24.21361 | 14613 ft | 336 kts | 323° |
| 2026-05-05 17:32 | 37.25673 | 24.19531 | 14102 ft | 335 kts | 323° |
| 2026-05-05 17:32 | 37.27487 | 24.17705 | 13562 ft | 334 kts | 323° |
| 2026-05-05 17:33 | 37.29291 | 24.15890 | 13027 ft | 331 kts | 323° |
| 2026-05-05 17:33 | 37.31081 | 24.14092 | 12529 ft | 328 kts | 323° |
| 2026-05-05 17:33 | 37.32854 | 24.12312 | 12015 ft | 325 kts | 323° |
| 2026-05-05 17:33 | 37.34610 | 24.10549 | 11537 ft | 322 kts | 323° |
| 2026-05-05 17:34 | 37.36352 | 24.08800 | 11061 ft | 319 kts | 323° |
| 2026-05-05 17:34 | 37.38075 | 24.07066 | 10590 ft | 316 kts | 323° |
| 2026-05-05 17:34 | 37.39474 | 24.05656 | 10226 ft | 314 kts | 323° |
| 2026-05-05 17:34 | 37.41177 | 24.03940 | 9876 ft | 308 kts | 323° |
| 2026-05-05 17:35 | 37.42810 | 24.02287 | 9739 ft | 295 kts | 323° |
| 2026-05-05 17:35 | 37.44395 | 24.00724 | 9603 ft | 283 kts | 328° |
| 2026-05-05 17:35 | 37.46093 | 23.99582 | 9455 ft | 272 kts | 334° |
| 2026-05-05 17:35 | 37.47754 | 23.98516 | 9170 ft | 268 kts | 334° |
| 2026-05-05 17:36 | 37.49396 | 23.97460 | 8833 ft | 266 kts | 334° |
| 2026-05-05 17:36 | 37.51037 | 23.96402 | 8496 ft | 264 kts | 334° |
| 2026-05-05 17:36 | 37.52665 | 23.95352 | 8164 ft | 262 kts | 334° |
| 2026-05-05 17:36 | 37.54289 | 23.94305 | 7829 ft | 261 kts | 334° |
| 2026-05-05 17:37 | 37.55899 | 23.93268 | 7496 ft | 259 kts | 334° |
| 2026-05-05 17:37 | 37.57504 | 23.92235 | 7153 ft | 258 kts | 334° |
| 2026-05-05 17:37 | 37.59087 | 23.91216 | 6853 ft | 257 kts | 334° |
| 2026-05-05 17:37 | 37.60652 | 23.90210 | 6530 ft | 256 kts | 333° |
| 2026-05-05 17:38 | 37.62190 | 23.89221 | 6199 ft | 255 kts | 333° |
| 2026-05-05 17:38 | 37.63771 | 23.88204 | 5840 ft | 255 kts | 333° |
| 2026-05-05 17:38 | 37.65347 | 23.87190 | 5473 ft | 255 kts | 333° |
| 2026-05-05 17:38 | 37.66644 | 23.86356 | 5180 ft | 255 kts | 333° |
| 2026-05-05 17:39 | 37.68216 | 23.85343 | 4945 ft | 250 kts | 333° |
| 2026-05-05 17:39 | 37.69698 | 23.84386 | 4828 ft | 241 kts | 333° |
| 2026-05-05 17:39 | 37.71167 | 23.83434 | 4694 ft | 233 kts | 333° |
| 2026-05-05 17:39 | 37.72552 | 23.82539 | 4566 ft | 224 kts | 333° |
| 2026-05-05 17:40 | 37.73913 | 23.81661 | 4427 ft | 215 kts | 333° |
| 2026-05-05 17:40 | 37.75215 | 23.80823 | 4161 ft | 213 kts | 333° |
| 2026-05-05 17:40 | 37.76552 | 23.80001 | 3832 ft | 214 kts | 340° |
| 2026-05-05 17:40 | 37.78004 | 23.79683 | 3591 ft | 213 kts | 0° |
| 2026-05-05 17:41 | 37.79459 | 23.80053 | 3375 ft | 216 kts | 21° |
| 2026-05-05 17:41 | 37.80735 | 23.81056 | 3110 ft | 218 kts | 35° |
| 2026-05-05 17:41 | 37.81949 | 23.82209 | 2815 ft | 217 kts | 36° |
| 2026-05-05 17:41 | 37.83122 | 23.83322 | 2532 ft | 204 kts | 36° |
| 2026-05-05 17:42 | 37.84226 | 23.84369 | 2274 ft | 195 kts | 36° |
| 2026-05-05 17:42 | 37.85288 | 23.85375 | 2064 ft | 184 kts | 36° |
| 2026-05-05 17:42 | 37.86272 | 23.86308 | 1812 ft | 166 kts | 36° |
| 2026-05-05 17:42 | 37.87143 | 23.87135 | 1580 ft | 148 kts | 36° |
| 2026-05-05 17:43 | 37.87948 | 23.87898 | 1386 ft | 142 kts | 36° |
| 2026-05-05 17:43 | 37.88732 | 23.88641 | 1197 ft | 140 kts | 36° |
| 2026-05-05 17:43 | 37.89507 | 23.89377 | 1006 ft | 139 kts | 37° |
| 2026-05-05 17:43 | 37.90278 | 23.90129 | 782 ft | 140 kts | 37° |
| 2026-05-05 17:44 | 37.91065 | 23.90847 | 636 ft | 140 kts | 36° |
| 2026-05-05 17:44 | 37.91840 | 23.91588 | 428 ft | 140 kts | 36° |
| 2026-05-05 17:44 | 37.92616 | 23.92336 | 315 ft | 135 kts | 36° |
| 2026-05-05 17:44 | 37.93271 | 23.92957 | 292 ft | 95 kts | 37° |
| 2026-05-05 17:45 | 37.93722 | 23.93384 | 293 ft | 73 kts | 38° |
| 2026-05-05 17:45 | 37.93922 | 23.93696 | 297 ft | 21 kts | 91° |
| 2026-05-05 17:45 | 37.93956 | 23.93784 | 298 ft | 11 kts | 54° |
| 2026-05-05 17:45 | 37.93992 | 23.93875 | 301 ft | 12 kts | 66° |
| 2026-05-05 17:46 | 37.94044 | 23.93969 | 300 ft | 14 kts | 39° |
| 2026-05-05 17:46 | 37.94130 | 23.94052 | 301 ft | 17 kts | 37° |
| 2026-05-05 17:46 | 37.94230 | 23.94146 | 301 ft | 19 kts | 37° |
| 2026-05-05 17:46 | 37.94348 | 23.94258 | 305 ft | 23 kts | 37° |
| 2026-05-05 17:47 | 37.94478 | 23.94381 | 303 ft | 25 kts | 36° |
| 2026-05-05 17:47 | 37.94613 | 23.94508 | 303 ft | 25 kts | 36° |
| 2026-05-05 17:47 | 37.94669 | 23.94642 | 303 ft | 17 kts | 120° |
| 2026-05-05 17:47 | 37.94594 | 23.94778 | 301 ft | 21 kts | 127° |
| 2026-05-05 17:48 | 37.94502 | 23.94933 | 301 ft | 23 kts | 127° |
| 2026-05-05 17:48 | 37.94404 | 23.95099 | 301 ft | 24 kts | 127° |
| 2026-05-05 17:48 | 37.94308 | 23.95260 | 301 ft | 21 kts | 127° |
| 2026-05-05 17:48 | 37.94216 | 23.95415 | 301 ft | 22 kts | 127° |
| 2026-05-05 17:49 | 37.94139 | 23.95539 | 300 ft | 16 kts | 140° |
| 2026-05-05 17:49 | 37.94036 | 23.95504 | 301 ft | 18 kts | 216° |
| 2026-05-05 17:49 | 37.93931 | 23.95405 | 300 ft | 15 kts | 217° |
| 2026-05-05 17:49 | 37.93876 | 23.95281 | 301 ft | 18 kts | 249° |
| 2026-05-05 17:50 | 37.93825 | 23.95175 | 300 ft | 13 kts | 218° |
| 2026-05-05 17:50 | 37.93743 | 23.95096 | 303 ft | 16 kts | 217° |
| 2026-05-05 17:50 | 37.93661 | 23.95019 | 302 ft | 11 kts | 216° |
| 2026-05-05 17:50 | 37.93668 | 23.94966 | 301 ft | 8 kts | 307° |
| 2026-05-05 17:51 | 37.93693 | 23.94924 | 301 ft | 0 kts | 308° |